Time;durP1;ratioP1;P1;durP2;ratioP2;P2;SDS_P1;SDS_P2;PMS_P1;PMS_P2;Temp;Humidity;BMP_temperature;BMP_pressure;BME280_temperature;BME280_humidity;BME280_pressure;Samples;Min_cycle;Max_cycle;Signal;HPM_P1;HPM_P2
2022/08/03 00:00:55;;;;;;;5.90;3.47;;;;;;;;;;5007382;28;20045;-79
2022/08/03 00:03:21;;;;;;;5.50;3.70;;;;;;;18.75;96.05;68858.19;5009747;28;20116;-78
2022/08/03 00:05:46;;;;;;;4.82;3.15;;;;;;;18.71;95.73;68854.72;5011131;28;20061;-79
2022/08/03 00:08:11;;;;;;;4.25;3.40;;;;;;;18.71;95.57;68848.78;5011958;28;20033;-79
2022/08/03 00:10:37;;;;;;;4.93;3.42;;;;;;;;;;5011052;28;20488;-79
2022/08/03 00:13:02;;;;;;;4.35;3.20;;;;;;;;;;5010182;28;20038;-78
2022/08/03 00:15:28;;;;;;;5.47;3.53;;;;;;;18.61;96.49;68842.72;5010688;28;20468;-78
2022/08/03 00:17:53;;;;;;;6.68;3.85;;;;;;;18.62;96.56;68844.47;5010546;28;20538;-79
2022/08/03 00:20:24;;;;;;;5.70;3.40;;;;;;;18.58;95.90;68834.47;5010529;28;20033;-78
2022/08/03 00:22:50;;;;;;;3.75;3.17;;;;;;;;;;5011761;28;20034;-79
2022/08/03 00:25:15;;;;;;;5.35;3.30;;;;;;;;;;5011774;28;20095;-79
2022/08/03 00:27:41;;;;;;;4.63;3.22;;;;;;;18.49;96.92;68824.22;5012739;28;20069;-78
2022/08/03 00:30:06;;;;;;;5.78;3.45;;;;;;;;;;5010573;28;20037;-79
2022/08/03 00:32:31;;;;;;;5.40;3.90;;;;;;;;;;5004732;28;20038;-79
2022/08/03 00:34:56;;;;;;;5.07;3.50;;;;;;;;;;5009548;28;20053;-77
2022/08/03 00:37:22;;;;;;;4.40;3.45;;;;;;;;;;5009973;28;20296;-79
2022/08/03 00:39:47;;;;;;;7.23;3.43;;;;;;;;;;5011291;28;20034;-79
2022/08/03 00:42:13;;;;;;;6.78;3.35;;;;;;;18.32;98.43;68810.19;5008333;28;20295;-79
2022/08/03 00:44:43;;;;;;;5.95;3.90;;;;;;;18.25;98.63;68797.94;5008785;28;20052;-79
2022/08/03 00:47:09;;;;;;;5.18;3.92;;;;;;;18.23;98.75;68795.09;5006747;28;20050;-79
2022/08/03 00:49:35;;;;;;;5.35;3.40;;;;;;;;;;5005479;28;20066;-79
2022/08/03 00:52:01;;;;;;;5.25;3.67;;;;;;;;;;5010136;28;20131;-79
2022/08/03 00:54:27;;;;;;;5.43;3.80;;;;;;;18.19;98.65;68790.53;5010716;28;20501;-78
2022/08/03 00:56:52;;;;;;;6.75;4.10;;;;;;;18.15;98.87;68783.25;5012291;28;20050;-78
2022/08/03 00:59:18;;;;;;;6.47;4.13;;;;;;;;;;5014401;28;20037;-79
2022/08/03 01:01:43;;;;;;;5.38;3.90;;;;;;;18.17;99.51;68794.22;5010602;28;20045;-78
2022/08/03 01:04:08;;;;;;;5.55;3.60;;;;;;;;;;5024245;28;20076;-78
2022/08/03 01:06:39;;;;;;;6.57;4.18;;;;;;;18.12;99.50;68783.09;5020766;28;20042;-78
2022/08/03 01:09:16;;;;;;;5.63;3.90;;;;;;;;;;5016264;28;20124;-79
2022/08/03 01:11:48;;;;;;;6.18;3.97;;;;;;;;;;5010729;28;20041;-79
2022/08/03 01:14:13;;;;;;;5.93;4.45;;;;;;;;;;5011911;28;20044;-79
2022/08/03 01:16:47;;;;;;;7.47;4.77;;;;;;;17.96;99.62;68770.81;5010933;28;20444;-79
2022/08/03 01:19:12;;;;;;;6.57;3.88;;;;;;;;;;5010599;28;20308;-79
2022/08/03 01:21:46;;;;;;;7.30;3.97;;;;;;;17.94;99.72;68767.94;5009555;28;20073;-79
2022/08/03 01:24:26;;;;;;;7.97;4.20;;;;;;;;;;5010951;28;20284;-79
2022/08/03 01:27:01;;;;;;;6.82;4.70;;;;;;;;;;5007467;28;20460;-79
2022/08/03 01:29:45;;;;;;;4.60;4.03;;;;;;;;;;5011455;28;20512;-79
2022/08/03 01:32:20;;;;;;;6.18;4.75;;;;;;;17.82;100.00;68754.84;4998781;28;20052;-79
2022/08/03 01:34:59;;;;;;;9.25;4.60;;;;;;;17.81;100.00;68748.88;5004119;28;20120;-79
2022/08/03 01:37:27;;;;;;;5.68;3.92;;;;;;;;;;5006705;28;20042;-79
2022/08/03 01:39:56;;;;;;;5.45;4.05;;;;;;;17.76;100.00;68748.53;5011823;28;20096;-79
2022/08/03 01:42:23;;;;;;;5.30;4.05;;;;;;;;;;5010036;28;20044;-78
2022/08/03 01:44:49;;;;;;;5.60;4.45;;;;;;;;;;5011062;28;20045;-78
2022/08/03 01:47:19;;;;;;;6.40;4.88;;;;;;;17.64;100.00;68729.47;5012091;28;20057;-78
2022/08/03 01:49:46;;;;;;;6.75;5.28;;;;;;;17.60;100.00;68730.25;5007166;28;20396;-79
2022/08/03 01:52:17;;;;;;;6.63;5.07;;;;;;;17.64;100.00;68734.28;5009321;28;20054;-79
2022/08/03 01:54:44;;;;;;;7.43;4.82;;;;;;;;;;5012279;28;20712;-79
2022/08/03 01:57:09;;;;;;;7.78;4.93;;;;;;;;;;5008609;28;20132;-79
2022/08/03 01:59:35;;;;;;;7.15;5.25;;;;;;;;;;5010609;28;20046;-79
2022/08/03 02:02:03;;;;;;;7.90;5.60;;;;;;;17.52;100.00;68721.13;5010469;28;20123;-79
2022/08/03 02:04:29;;;;;;;8.02;5.53;;;;;;;;;;5012647;28;20050;-79
2022/08/03 02:06:55;;;;;;;9.32;5.85;;;;;;;;;;5005938;28;20449;-80
2022/08/03 02:09:21;;;;;;;7.47;5.55;;;;;;;;;;5002252;28;20053;-79
2022/08/03 02:11:47;;;;;;;7.38;5.50;;;;;;;;;;5003281;28;21528;-79
2022/08/03 02:14:13;;;;;;;8.00;5.78;;;;;;;;;;5025412;28;20149;-79
2022/08/03 02:16:38;;;;;;;10.13;5.50;;;;;;;17.39;100.00;68700.94;5005578;28;20041;-79
2022/08/03 02:19:06;;;;;;;7.30;5.57;;;;;;;17.31;100.00;68692.94;5011481;28;20046;-79
2022/08/03 02:21:34;;;;;;;7.80;5.45;;;;;;;17.27;100.00;68688.38;5011221;28;20049;-79
2022/08/03 02:24:00;;;;;;;8.82;5.70;;;;;;;17.26;100.00;68692.63;5008067;28;20054;-79
2022/08/03 02:26:27;;;;;;;9.32;5.78;;;;;;;;;;5007134;28;20062;-79
2022/08/03 02:28:55;;;;;;;7.93;6.32;;;;;;;;;;5009113;28;20132;-79
2022/08/03 02:31:26;;;;;;;9.15;5.72;;;;;;;17.19;100.00;68684.63;5006008;28;20041;-79
2022/08/03 02:33:55;;;;;;;7.90;5.72;;;;;;;17.17;100.00;68676.97;5004405;28;20050;-79
2022/08/03 02:36:27;;;;;;;;;;;;;;;17.10;100.00;68666.28;5008391;28;20042;-79
2022/08/03 02:38:57;;;;;;;7.90;5.88;;;;;;;17.02;100.00;68659.84;5005532;28;19918;-80
2022/08/03 02:41:24;;;;;;;8.20;6.00;;;;;;;;;;5006891;28;20037;-79
2022/08/03 02:43:55;;;;;;;10.35;6.15;;;;;;;17.01;100.00;68659.28;5004987;28;20045;-79
2022/08/03 02:46:23;;;;;;;9.13;6.32;;;;;;;;;;5006108;28;20057;-79
2022/08/03 02:48:50;;;;;;;7.90;6.23;;;;;;;17.01;100.00;68664.66;5008988;28;20500;-79
2022/08/03 02:51:19;;;;;;;8.10;5.88;;;;;;;17.01;100.00;68664.09;5007220;28;20667;-79
2022/08/03 02:53:46;;;;;;;9.55;6.38;;;;;;;16.97;100.00;68662.22;5005747;28;20037;-79
2022/08/03 02:56:13;;;;;;;7.43;5.82;;;;;;;16.96;100.00;68658.97;5006608;28;20047;-79
2022/08/03 02:58:42;;;;;;;8.05;6.00;;;;;;;16.94;100.00;68656.09;5001924;28;20527;-79
2022/08/03 03:01:08;;;;;;;7.65;6.00;;;;;;;16.92;100.00;68654.97;5008402;28;20653;-79
2022/08/03 03:03:34;;;;;;;9.18;6.70;;;;;;;16.94;100.00;68650.72;5009658;28;20201;-79
2022/08/03 03:06:01;;;;;;;10.02;6.47;;;;;;;16.92;100.00;68654.97;5019428;28;20042;-79
2022/08/03 03:08:27;;;;;;;8.43;6.35;;;;;;;16.89;100.00;68654.25;5009775;28;20049;-79
2022/08/03 03:10:55;;;;;;;11.13;7.05;;;;;;;16.90;100.00;68652.69;5002921;28;20101;-79
2022/08/03 03:13:21;;;;;;;10.57;7.13;;;;;;;;;;5009620;28;20084;-78
2022/08/03 03:15:47;;;;;;;9.13;7.22;;;;;;;16.86;100.00;68648.13;5008813;28;20046;-79
2022/08/03 03:18:13;;;;;;;12.43;6.95;;;;;;;;;;5009943;28;20038;-79
2022/08/03 03:20:39;;;;;;;10.70;6.88;;;;;;;;;;5006705;28;20037;-79
2022/08/03 03:23:06;;;;;;;9.80;7.28;;;;;;;16.88;100.00;68650.41;5010624;28;20362;-79
2022/08/03 03:25:32;;;;;;;10.07;7.13;;;;;;;16.84;100.00;68640.47;5009110;28;20038;-79
2022/08/03 03:28:01;;;;;;;10.38;7.47;;;;;;;16.80;100.00;68635.91;5007864;28;20133;-79
2022/08/03 03:30:27;;;;;;;;;;;;;;;16.83;100.00;68644.13;5010001;28;20571;-79
2022/08/03 03:32:52;;;;;;;10.60;7.05;;;;;;;;;;5008583;28;19917;-79
2022/08/03 03:35:18;;;;;;;11.90;6.65;;;;;;;;;;5007602;28;20095;-79
2022/08/03 03:37:43;;;;;;;9.20;7.20;;;;;;;16.84;100.00;68645.84;5012892;28;20038;-79
2022/08/03 03:40:09;;;;;;;11.23;6.53;;;;;;;;;;5013375;28;20045;-79
2022/08/03 03:42:35;;;;;;;10.38;8.32;;;;;;;16.84;100.00;68645.28;5012061;28;20052;-79
2022/08/03 03:45:05;;;;;;;10.20;8.07;;;;;;;16.87;100.00;68643.88;5012406;28;20125;-79
2022/08/03 03:47:30;;;;;;;10.43;9.02;;;;;;;;;;5011227;28;20089;-81
2022/08/03 03:49:57;;;;;;;13.18;9.73;;;;;;;16.95;100.00;68657.25;5008842;28;20057;-79
2022/08/03 03:52:22;;;;;;;11.70;9.15;;;;;;;17.04;100.00;68670.78;5011731;28;20033;-79
2022/08/03 03:54:48;;;;;;;14.25;9.82;;;;;;;17.07;100.00;68670.94;5013004;28;20042;-79
2022/08/03 03:57:13;;;;;;;14.93;10.15;;;;;;;17.09;100.00;68673.22;5014720;28;20077;-79
2022/08/03 03:59:42;;;;;;;13.30;10.10;;;;;;;17.17;100.00;68682.34;5012374;28;20041;-79
2022/08/03 04:02:07;;;;;;;12.43;9.95;;;;;;;;;;5014933;28;20045;-79
2022/08/03 04:12:56;;;;;;;14.02;9.60;;;;;;;17.18;100.00;68685.63;4992642;28;20768;-78
2022/08/03 04:15:24;;;;;;;14.35;10.02;;;;;;;17.17;100.00;68685.03;5009717;28;20062;-78
2022/08/03 04:17:50;;;;;;;13.55;10.35;;;;;;;;;;5014403;28;20064;-78
2022/08/03 04:20:17;;;;;;;13.07;9.85;;;;;;;;;;5012864;28;20128;-78
2022/08/03 04:22:42;;;;;;;11.50;9.85;;;;;;;;;;5007136;28;20037;-78
2022/08/03 04:25:09;;;;;;;12.13;10.10;;;;;;;;;;5006784;28;20137;-78
2022/08/03 04:27:38;;;;;;;13.25;10.77;;;;;;;17.32;100.00;68701.56;5005956;28;20053;-78
2022/08/03 04:30:05;;;;;;;15.48;11.02;;;;;;;17.36;100.00;68698.63;5008841;28;20037;-78
2022/08/03 04:32:31;;;;;;;13.50;10.10;;;;;;;17.41;100.00;68708.59;5008302;28;20046;-78
2022/08/03 04:34:57;;;;;;;11.70;9.63;;;;;;;;;;5013390;28;20034;-78
2022/08/03 04:37:46;;;;;;;14.27;10.20;;;;;;;17.41;100.00;68709.16;5013480;28;20489;-78
2022/08/03 04:40:21;;;;;;;15.77;10.20;;;;;;;17.47;100.00;68715.44;5023003;28;20100;-79
2022/08/03 04:42:49;;;;;;;13.60;9.45;;;;;;;17.47;100.00;68710.63;5014084;28;20049;-78
2022/08/03 04:45:17;;;;;;;12.15;9.43;;;;;;;17.51;100.00;68715.19;5010228;28;20052;-79
2022/08/03 04:47:43;;;;;;;12.90;9.15;;;;;;;17.53;100.00;68724.97;5011150;28;20053;-79
2022/08/03 04:50:09;;;;;;;12.57;9.27;;;;;;;17.62;100.00;68732.56;5008523;28;20054;-79
2022/08/03 04:52:35;;;;;;;13.00;9.88;;;;;;;;;;5012707;28;20050;-78
2022/08/03 04:55:00;;;;;;;14.95;9.80;;;;;;;;;;5012551;28;20405;-79
2022/08/03 04:57:25;;;;;;;13.68;9.60;;;;;;;17.79;100.00;68746.03;5011682;28;20046;-79
2022/08/03 04:59:53;;;;;;;14.45;9.75;;;;;;;17.88;100.00;68761.09;5011416;28;20505;-79
2022/08/03 05:02:19;;;;;;;15.57;9.13;;;;;;;17.94;100.00;68767.94;5010552;28;20041;-79
2022/08/03 05:04:45;;;;;;;12.93;9.63;;;;;;;18.00;99.50;68769.97;5012323;28;20042;-79
2022/08/03 05:07:15;;;;;;;13.77;9.73;;;;;;;18.05;100.00;68775.13;5011560;28;20446;-79
2022/08/03 05:09:40;;;;;;;12.98;9.73;;;;;;;18.14;99.91;68790.22;5009029;28;20397;-79
2022/08/03 05:12:06;;;;;;;13.73;9.35;;;;;;;18.18;99.69;68789.38;5010268;28;20125;-78
2022/08/03 05:14:33;;;;;;;15.73;9.20;;;;;;;18.27;99.16;68800.25;5012024;28;20037;-79
2022/08/03 05:16:58;;;;;;;12.57;8.75;;;;;;;18.37;98.51;68810.50;5005571;28;20077;-80
2022/08/03 05:19:23;;;;;;;14.23;9.00;;;;;;;18.47;99.70;68821.91;5009196;28;20066;-79
2022/08/03 05:21:49;;;;;;;16.23;9.32;;;;;;;18.57;97.79;68833.34;5004894;28;20050;-78
2022/08/03 05:24:14;;;;;;;13.95;9.00;;;;;;;18.63;96.75;68837.50;5001899;28;20034;-78
2022/08/03 05:26:40;;;;;;;11.35;8.73;;;;;;;18.72;98.39;68855.28;5002930;28;20038;-78
2022/08/03 05:29:05;;;;;;;16.40;8.82;;;;;;;18.82;97.45;68861.34;5008020;28;20072;-78
2022/08/03 05:31:31;;;;;;;13.07;8.10;;;;;;;18.88;96.26;68868.22;5009073;28;20149;-78
2022/08/03 05:33:56;;;;;;;14.75;8.57;;;;;;;;;;5007008;28;20145;-79
2022/08/03 05:36:21;;;;;;;13.77;8.37;;;;;;;;;;5011824;28;20054;-79
2022/08/03 05:38:47;;;;;;;11.88;7.50;;;;;;;19.12;94.98;68894.47;5011143;28;20281;-79
2022/08/03 05:41:12;;;;;;;12.32;7.82;;;;;;;19.20;96.22;68903.63;5011440;28;20038;-79
2022/08/03 05:43:37;;;;;;;10.23;8.10;;;;;;;19.25;96.02;68914.72;5011855;28;20053;-79
2022/08/03 05:46:03;;;;;;;11.90;7.75;;;;;;;19.30;95.88;68915.03;5008712;28;20042;-79
2022/08/03 05:48:28;;;;;;;13.43;8.15;;;;;;;19.35;95.94;68920.75;5008249;28;20030;-79
2022/08/03 05:50:54;;;;;;;13.20;7.80;;;;;;;19.43;96.06;68929.31;5008054;28;20080;-79
2022/08/03 05:53:19;;;;;;;14.27;7.15;;;;;;;;;;5009573;28;20042;-79
2022/08/03 05:55:44;;;;;;;12.75;7.88;;;;;;;;;;5012409;28;20135;-79
2022/08/03 05:58:09;;;;;;;12.93;7.50;;;;;;;19.60;94.83;68954.16;5006366;28;20518;-79
2022/08/03 06:00:35;;;;;;;11.35;7.45;;;;;;;19.70;94.98;68959.63;5005465;28;20049;-78
2022/08/03 06:03:01;;;;;;;11.88;8.00;;;;;;;;;;5008915;28;20129;-79
2022/08/03 06:05:27;;;;;;;13.30;7.43;;;;;;;19.82;94.54;68970.66;5007611;28;20493;-79
2022/08/03 06:07:52;;;;;;;14.15;7.60;;;;;;;;;;5007896;28;20048;-79
2022/08/03 06:10:18;;;;;;;11.13;7.60;;;;;;;19.97;93.07;68989.91;5007957;28;20456;-80
2022/08/03 06:12:46;;;;;;;11.07;7.75;;;;;;;20.04;92.72;68997.34;5008515;28;20045;-79
2022/08/03 06:15:12;;;;;;;11.77;7.72;;;;;;;20.10;93.10;69004.19;5005581;28;20050;-78
2022/08/03 06:17:46;;;;;;;14.27;7.57;;;;;;;;;;5005672;28;20049;-79
2022/08/03 06:20:11;;;;;;;12.20;7.40;;;;;;;20.21;92.64;69016.78;5002487;28;20046;-79
2022/08/03 06:22:37;;;;;;;12.63;8.30;;;;;;;;;;5003968;28;20091;-81
2022/08/03 06:25:02;;;;;;;11.87;7.63;;;;;;;;;;5015824;28;20065;-81
2022/08/03 06:27:27;;;;;;;12.65;7.80;;;;;;;20.49;92.26;69053.06;5020585;28;20273;-81
2022/08/03 06:29:53;;;;;;;11.40;7.75;;;;;;;20.58;90.91;69057.97;5013487;28;20061;-82
2022/08/03 06:32:21;;;;;;;13.27;8.82;;;;;;;20.70;90.00;69071.69;5010523;28;20080;-79
2022/08/03 06:34:47;;;;;;;12.35;7.53;;;;;;;20.87;90.21;69095.97;5009198;28;20052;-79
2022/08/03 06:37:12;;;;;;;14.02;7.55;;;;;;;21.00;88.72;69102.16;5008911;28;20042;-79
2022/08/03 06:39:37;;;;;;;11.95;7.18;;;;;;;21.12;89.43;69115.88;5003862;28;20042;-79
2022/08/03 06:42:03;;;;;;;9.57;6.20;;;;;;;21.22;88.90;69124.03;5009477;28;20050;-79
2022/08/03 06:44:29;;;;;;;13.90;7.18;;;;;;;21.32;88.42;69138.19;5010471;28;20141;-80
2022/08/03 06:46:54;;;;;;;11.82;7.32;;;;;;;21.40;88.21;69154.91;5005266;28;20616;-80
2022/08/03 06:49:20;;;;;;;8.93;5.53;;;;;;;21.46;87.92;69155.78;5009040;28;20440;-80
2022/08/03 06:51:46;;;;;;;8.50;5.75;;;;;;;21.58;88.07;69170.09;5008355;28;20045;-81
2022/08/03 06:54:11;;;;;;;11.23;6.70;;;;;;;21.64;87.19;69173.69;5011719;28;20394;-80
2022/08/03 06:56:37;;;;;;;9.70;5.68;;;;;;;21.69;87.45;69182.09;5011702;28;20069;-80
2022/08/03 06:59:02;;;;;;;9.95;6.00;;;;;;;21.80;86.57;69194.13;5011187;28;20525;-80
2022/08/03 07:01:27;;;;;;;10.98;5.72;;;;;;;21.87;86.96;69199.44;5011804;28;20580;-80
2022/08/03 07:03:53;;;;;;;8.63;5.40;;;;;;;;;;5009327;28;20066;-80
2022/08/03 07:06:19;;;;;;;8.07;5.07;;;;;;;22.10;85.67;69225.19;5010871;28;20042;-81
2022/08/03 07:08:44;;;;;;;11.15;5.82;;;;;;;22.18;84.82;69231.66;5002654;28;20041;-80
2022/08/03 07:11:10;;;;;;;8.23;4.20;;;;;;;22.25;83.75;69245.09;5009293;28;20429;-80
2022/08/03 07:13:35;;;;;;;8.27;4.15;;;;;;;22.38;83.47;69256.69;5009698;28;20046;-79
2022/08/03 07:16:00;;;;;;;9.73;4.15;;;;;;;22.53;83.10;69270.59;5006604;28;20074;-80
2022/08/03 07:18:26;;;;;;;11.05;4.47;;;;;;;22.60;82.06;69278.59;5009144;28;20037;-80
2022/08/03 07:20:51;;;;;;;11.00;3.72;;;;;;;22.61;81.57;69285.16;5010257;28;20052;-82
2022/08/03 07:23:16;;;;;;;9.77;3.70;;;;;;;22.71;81.42;69296.06;5011939;28;20033;-82
2022/08/03 07:25:42;;;;;;;8.82;3.30;;;;;;;22.82;80.35;69302.66;5009950;28;20049;-81
2022/08/03 07:28:07;;;;;;;10.13;3.20;;;;;;;22.92;79.03;69317.41;5012920;28;20108;-83
2022/08/03 07:30:34;;;;;;;10.48;3.10;;;;;;;22.99;78.12;69324.88;5011696;28;20134;-82
2022/08/03 07:32:59;;;;;;;8.57;2.92;;;;;;;23.09;77.67;69335.75;5014007;28;20034;-83
2022/08/03 07:35:25;;;;;;;6.25;2.75;;;;;;;23.14;77.31;69344.75;5013689;28;20506;-82
2022/08/03 07:37:50;;;;;;;9.35;2.90;;;;;;;23.18;76.84;69349.34;5011362;28;20104;-81
2022/08/03 07:40:16;;;;;;;8.52;2.75;;;;;;;23.24;76.47;69352.34;5014070;28;20030;-81
2022/08/03 07:42:41;;;;;;;8.73;2.80;;;;;;;23.43;76.08;69371.41;5013416;28;20719;-82
2022/08/03 07:45:08;;;;;;;7.60;1.90;;;;;;;23.44;74.25;69375.28;5013452;28;20056;-83
2022/08/03 07:47:33;;;;;;;7.10;1.98;;;;;;;23.56;75.02;69391.16;5010942;28;20044;-82
2022/08/03 07:49:59;;;;;;;6.65;2.58;;;;;;;23.58;73.79;69391.31;5008942;28;20045;-81
2022/08/03 07:55:09;;;;;;;5.88;2.03;;;;;;;23.65;73.54;69399.34;5012864;28;20403;-82
2022/08/03 07:57:36;;;;;;;6.75;1.88;;;;;;;23.71;72.61;69407.81;5009104;28;20046;-82
2022/08/03 08:00:11;;;;;;;4.95;1.80;;;;;;;23.89;72.41;69427.88;5009693;28;20045;-81
2022/08/03 08:02:36;;;;;;;6.57;2.20;;;;;;;23.96;71.60;69433.75;5011886;28;20042;-81
2022/08/03 08:05:02;;;;;;;8.35;2.00;;;;;;;23.95;70.91;69432.59;5009195;28;20670;-81
2022/08/03 08:07:27;;;;;;;7.05;1.90;;;;;;;23.98;71.75;69438.19;5008639;28;20049;-79
2022/08/03 08:09:52;;;;;;;9.63;2.10;;;;;;;24.09;72.02;69456.25;5010300;28;20038;-79
2022/08/03 08:12:18;;;;;;;6.88;2.38;;;;;;;24.19;71.02;69459.53;5006827;28;20049;-79
2022/08/03 08:14:46;;;;;;;7.88;1.95;;;;;;;24.23;71.62;69463.56;5010054;28;20038;-80
2022/08/03 08:17:12;;;;;;;8.80;2.10;;;;;;;24.33;71.38;69472.28;5013390;28;20520;-79
2022/08/03 08:19:37;;;;;;;5.28;2.25;;;;;;;24.43;70.91;69480.50;5014747;28;20030;-79
2022/08/03 08:22:03;;;;;;;7.55;2.30;;;;;;;24.50;70.22;69494.53;5008755;28;20468;-79
2022/08/03 08:24:32;;;;;;;5.65;1.92;;;;;;;24.54;69.59;69501.84;5003162;28;20045;-79
2022/08/03 08:26:58;;;;;;;6.03;2.70;;;;;;;24.56;70.14;69503.00;4999832;28;20037;-79
2022/08/03 08:29:24;;;;;;;3.75;1.90;;;;;;;24.73;69.54;69520.34;5002875;28;20034;-80
2022/08/03 08:31:49;;;;;;;4.78;2.15;;;;;;;24.82;68.65;69527.34;5008711;28;20417;-80
2022/08/03 08:34:15;;;;;;;5.75;1.98;;;;;;;24.90;67.60;69539.25;5005009;28;20672;-79
2022/08/03 08:36:41;;;;;;;6.18;1.88;;;;;;;24.97;67.44;69547.31;5009906;28;20044;-80
2022/08/03 08:39:06;;;;;;;8.50;1.80;;;;;;;25.19;67.85;69571.97;5010404;28;20216;-79
2022/08/03 08:41:33;;;;;;;6.20;2.22;;;;;;;25.20;66.79;69573.13;5009615;28;20045;-80
2022/08/03 08:43:59;;;;;;;6.80;2.10;;;;;;;25.19;66.43;69574.69;5011311;28;20436;-80
2022/08/03 08:46:25;;;;;;;5.15;2.28;;;;;;;25.26;66.76;69576.72;5010372;28;20061;-82
2022/08/03 08:48:52;;;;;;;5.88;1.92;;;;;;;25.35;65.79;69587.03;5010235;28;20673;-82
2022/08/03 08:51:19;;;;;;;7.22;1.70;;;;;;;25.39;64.60;69597.06;5008419;28;20567;-82
2022/08/03 08:53:48;;;;;;;6.88;2.45;;;;;;;25.46;64.80;69603.97;5012266;28;20046;-82
2022/08/03 08:56:15;;;;;;;5.47;2.00;;;;;;;25.48;64.78;69600.81;5006848;28;20156;-80
2022/08/03 08:58:47;;;;;;;6.85;1.70;;;;;;;25.55;65.24;69609.41;5008563;28;20038;-79
2022/08/03 09:01:13;;;;;;;6.32;2.03;;;;;;;25.67;65.27;69628.63;5004384;28;20034;-80
2022/08/03 09:03:39;;;;;;;5.35;1.40;;;;;;;25.73;63.41;69634.94;5005832;28;20057;-79
2022/08/03 09:06:05;;;;;;;7.47;1.95;;;;;;;25.78;63.69;69637.97;5008158;28;20650;-80
2022/08/03 09:08:31;;;;;;;7.53;2.05;;;;;;;25.80;63.46;69637.53;5009106;28;20065;-80
2022/08/03 09:10:57;;;;;;;5.97;2.00;;;;;;;25.87;63.77;69648.31;5010160;28;20105;-80
2022/08/03 09:13:23;;;;;;;7.90;2.40;;;;;;;25.95;64.07;69656.94;5008444;28;20124;-79
2022/08/03 09:16:17;;;;;;;4.68;1.83;;;;;;;26.09;62.94;69672.97;5004539;28;20084;-80
2022/08/03 09:18:51;;;;;;;7.97;1.70;;;;;;;26.09;63.38;69672.97;5005676;28;20073;-80
2022/08/03 09:21:25;;;;;;;5.53;1.80;;;;;;;26.06;62.14;69668.97;5006760;28;20038;-80
2022/08/03 09:23:53;;;;;;;5.85;1.80;;;;;;;26.14;61.91;69680.88;5004847;28;20046;-80
2022/08/03 09:26:23;;;;;;;7.78;1.75;;;;;;;26.27;61.90;69692.53;5018561;28;20074;-79
2022/08/03 09:28:56;;;;;;;7.03;2.10;;;;;;;26.30;62.90;69698.69;4996721;28;20065;-79
2022/08/03 09:31:29;;;;;;;4.70;1.85;;;;;;;26.44;60.69;69714.19;5005725;28;20139;-79
2022/08/03 09:33:58;;;;;;;8.20;2.30;;;;;;;26.39;60.85;69705.72;5019337;28;20576;-80
2022/08/03 09:36:45;;;;;;;6.93;1.70;;;;;;;26.43;60.89;69710.88;5006155;28;20073;-80
2022/08/03 09:39:12;;;;;;;5.05;1.98;;;;;;;26.51;60.74;69716.78;5006265;28;20529;-80
2022/08/03 09:41:40;;;;;;;;;;;;;;;26.55;60.19;69721.94;5003528;28;20069;-79
2022/08/03 09:44:05;;;;;;;7.00;2.13;;;;;;;26.54;59.67;69720.22;5022346;28;19992;-79
2022/08/03 09:46:32;;;;;;;5.20;1.65;;;;;;;26.70;59.43;69738.00;5011625;28;20042;-79
2022/08/03 09:49:15;;;;;;;6.00;1.65;;;;;;;26.78;58.00;69753.25;5011332;28;20285;-80
2022/08/03 09:51:41;;;;;;;4.72;1.67;;;;;;;26.83;59.01;69752.38;4992787;28;20076;-80
2022/08/03 09:54:06;;;;;;;6.38;1.77;;;;;;;26.83;58.49;69755.13;5009907;28;20042;-80
2022/08/03 09:56:45;;;;;;;7.68;2.33;;;;;;;26.92;57.79;69766.03;5011797;28;20046;-80
2022/08/03 09:59:12;;;;;;;7.18;2.25;;;;;;;26.94;57.82;69765.59;5009939;28;20049;-80
2022/08/03 10:01:40;;;;;;;5.70;1.80;;;;;;;27.04;58.19;69778.66;5010171;28;20528;-77
2022/08/03 10:04:12;;;;;;;7.78;2.00;;;;;;;27.23;57.21;69803.81;4997251;28;20050;-79
2022/08/03 10:06:38;;;;;;;6.20;1.85;;;;;;;27.21;58.00;69792.75;5017884;28;20046;-77
2022/08/03 10:09:12;;;;;;;6.88;1.98;;;;;;;27.35;55.34;69816.44;5010133;28;20610;-80
2022/08/03 10:11:38;;;;;;;7.90;2.35;;;;;;;27.50;55.79;69827.63;5012190;28;20049;-80
2022/08/03 10:14:09;;;;;;;7.85;2.22;;;;;;;27.49;55.11;69827.06;5010920;28;20049;-79
2022/08/03 10:16:39;;;;;;;4.43;1.60;;;;;;;27.48;55.12;69828.06;5006215;28;20054;-79
2022/08/03 10:19:06;;;;;;;6.43;1.90;;;;;;;27.41;56.00;69818.44;5010380;28;20041;-79
2022/08/03 10:21:37;;;;;;;5.80;2.00;;;;;;;27.48;55.64;69828.06;5008868;28;20046;-80
2022/08/03 10:24:05;;;;;;;6.88;1.60;;;;;;;27.61;54.18;69843.59;5009203;28;20034;-78
2022/08/03 10:26:33;;;;;;;7.88;1.63;;;;;;;27.76;52.83;69860.25;5011864;28;20038;-79
2022/08/03 10:29:01;;;;;;;8.63;2.05;;;;;;;27.76;53.38;69862.41;5006919;28;20469;-78
2022/08/03 10:31:33;;;;;;;9.50;2.00;;;;;;;27.68;54.20;69848.91;5010809;28;20545;-77
2022/08/03 10:34:01;;;;;;;6.97;1.77;;;;;;;27.85;54.54;69870.03;5010502;28;20115;-80
2022/08/03 10:36:30;;;;;;;6.47;1.98;;;;;;;27.86;53.38;69868.47;5010573;28;20073;-80
2022/08/03 10:38:56;;;;;;;5.43;1.92;;;;;;;28.10;52.97;69896.03;5002430;28;20046;-78
2022/08/03 10:41:30;;;;;;;8.95;2.10;;;;;;;27.96;53.00;69879.94;5009278;28;20060;-78
2022/08/03 10:44:01;;;;;;;8.50;2.10;;;;;;;28.11;52.26;69897.19;5011890;28;20038;-79
2022/08/03 10:46:27;;;;;;;5.43;1.70;;;;;;;28.10;51.82;69900.94;5006440;28;20038;-79
2022/08/03 10:48:55;;;;;;;5.35;1.80;;;;;;;28.04;52.87;69885.84;5013410;28;20125;-79
2022/08/03 10:51:21;;;;;;;7.33;1.57;;;;;;;28.06;51.34;69890.88;5007364;28;20172;-79
2022/08/03 10:53:47;;;;;;;7.82;1.70;;;;;;;28.09;51.01;69894.31;5007465;28;20037;-78
2022/08/03 10:59:14;;;;;;;10.70;2.35;;;;;;;28.26;49.67;69913.88;4990717;28;20096;-79
2022/08/03 11:01:53;;;;;;;9.18;1.95;;;;;;;28.32;49.64;69925.66;5006621;28;20038;-78
2022/08/03 11:04:20;;;;;;;6.40;2.00;;;;;;;28.48;51.01;69941.34;5003418;28;20050;-80
2022/08/03 11:06:47;;;;;;;7.30;1.50;;;;;;;28.70;49.86;69962.75;5014176;28;20042;-79
2022/08/03 11:09:12;;;;;;;10.30;2.10;;;;;;;28.82;48.93;69978.72;5011554;28;20060;-79
2022/08/03 11:11:43;;;;;;;7.68;2.00;;;;;;;28.82;48.04;69973.81;5002591;28;20507;-76
2022/08/03 11:14:12;;;;;;;8.55;1.90;;;;;;;28.99;47.16;69993.34;5004348;28;20054;-77
2022/08/03 11:17:01;;;;;;;12.57;2.72;;;;;;;29.00;44.97;69994.50;5010277;28;20053;-78
2022/08/03 11:19:43;;;;;;;10.75;1.90;;;;;;;28.90;44.97;69983.00;5010663;28;20046;-79
2022/08/03 11:22:08;;;;;;;10.60;2.28;;;;;;;29.00;46.22;69997.25;5013986;28;20046;-77
2022/08/03 11:24:37;;;;;;;10.55;2.30;;;;;;;29.11;46.81;70003.28;5010480;28;20101;-78
2022/08/03 11:27:23;;;;;;;9.07;1.67;;;;;;;29.05;45.96;70004.59;5009633;28;20054;-78
2022/08/03 11:30:27;;;;;;;7.00;1.83;;;;;;;29.17;45.30;70015.66;5002645;28;20476;-80
2022/08/03 11:32:56;;;;;;;8.23;2.13;;;;;;;29.22;45.26;70024.72;5000567;28;20048;-80
2022/08/03 11:35:23;;;;;;;;;;;;;;;29.18;44.79;70017.41;4999026;28;20046;-79
2022/08/03 11:37:57;;;;;;;9.93;1.80;;;;;;;29.10;46.30;70007.63;5004515;28;19930;-82
2022/08/03 11:40:49;;;;;;;9.70;1.80;;;;;;;29.19;46.15;70018.53;5002125;28;20125;-79
2022/08/03 11:43:20;;;;;;;8.00;1.90;;;;;;;29.24;47.24;70024.31;4994109;28;20041;-82
2022/08/03 11:46:05;;;;;;;7.05;1.40;;;;;;;29.44;46.80;70044.00;5000275;28;20065;-79
2022/08/03 11:48:39;;;;;;;5.97;1.45;;;;;;;29.66;43.90;70071.50;5012149;28;20047;-81
2022/08/03 11:51:22;;;;;;;8.20;1.75;;;;;;;29.83;44.56;70090.47;5000714;28;20038;-78
2022/08/03 11:54:01;;;;;;;11.35;2.03;;;;;;;29.54;44.60;70057.66;5001199;28;20109;-81
2022/08/03 11:56:28;;;;;;;8.25;1.70;;;;;;;29.53;44.53;70055.94;4998228;28;20042;-81
2022/08/03 11:58:57;;;;;;;5.55;1.63;;;;;;;29.66;44.73;70071.50;4998059;28;20042;-83
2022/08/03 12:01:23;;;;;;;;;;;;;;;29.55;44.55;70061.56;5003525;28;20444;-79
2022/08/03 12:03:49;;;;;;;7.15;1.73;;;;;;;29.70;45.37;70078.25;5002396;28;19917;-79
2022/08/03 12:06:16;;;;;;;10.90;3.25;;;;;;;29.85;43.93;70098.25;5005096;28;20034;-80
2022/08/03 12:08:42;;;;;;;12.27;2.65;;;;;;;29.97;43.76;70105.44;4999942;28;20054;-79
2022/08/03 12:11:10;;;;;;;10.98;2.35;;;;;;;29.95;41.62;70103.13;5005693;28;20041;-83
2022/08/03 12:13:42;;;;;;;11.80;2.33;;;;;;;29.89;43.85;70099.53;4999885;28;20143;-82
2022/08/03 12:16:08;;;;;;;11.70;2.05;;;;;;;29.88;42.05;70096.22;5002353;28;20188;-79
2022/08/03 12:18:34;;;;;;;9.63;1.70;;;;;;;30.05;42.16;70114.66;5004636;28;20129;-79